sensor_id;sensor_type;location;lat;lon;timestamp;pressure;altitude;pressure_sealevel;temperature;humidity
3590;BME280;1809;48.470;9.226;2023-01-26T00:00:53;147969.78;;;0.56;100.00
3590;BME280;1809;48.470;9.226;2023-01-26T00:03:19;147951.22;;;0.48;100.00
3590;BME280;1809;48.470;9.226;2023-01-26T00:05:45;148294.13;;;0.48;100.00
3590;BME280;1809;48.470;9.226;2023-01-26T00:08:10;148981.25;;;0.50;100.00
3590;BME280;1809;48.470;9.226;2023-01-26T00:10:40;148983.75;;;0.51;100.00
3590;BME280;1809;48.470;9.226;2023-01-26T00:13:07;149321.81;;;0.49;100.00
3590;BME280;1809;48.470;9.226;2023-01-26T00:15:34;149662.34;;;0.49;100.00
3590;BME280;1809;48.470;9.226;2023-01-26T00:17:59;149687.41;;;0.59;100.00
3590;BME280;1809;48.470;9.226;2023-01-26T00:20:26;149706.16;;;0.67;100.00
3590;BME280;1809;48.470;9.226;2023-01-26T00:22:51;149356.75;;;0.64;100.00
3590;BME280;1809;48.470;9.226;2023-01-26T00:25:18;149364.25;;;0.67;100.00
3590;BME280;1809;48.470;9.226;2023-01-26T00:27:43;149028.63;;;0.69;100.00
3590;BME280;1809;48.470;9.226;2023-01-26T00:30:09;148716.59;;;0.81;100.00
3590;BME280;1809;48.470;9.226;2023-01-26T00:32:34;147710.81;;;0.89;100.00
3590;BME280;1809;48.470;9.226;2023-01-26T00:35:01;145943.44;;;0.65;100.00
3590;BME280;1809;48.470;9.226;2023-01-26T00:37:26;146289.88;;;0.67;100.00
3590;BME280;1809;48.470;9.226;2023-01-26T00:39:51;146965.75;;;0.64;100.00
3590;BME280;1809;48.470;9.226;2023-01-26T00:42:17;147312.31;;;0.66;100.00
3590;BME280;1809;48.470;9.226;2023-01-26T00:44:42;148015.56;;;0.74;100.00
3590;BME280;1809;48.470;9.226;2023-01-26T00:47:09;148018.03;;;0.75;100.00
3590;BME280;1809;48.470;9.226;2023-01-26T00:49:35;147990.81;;;0.64;100.00
3590;BME280;1809;48.470;9.226;2023-01-26T00:52:01;148332.56;;;0.64;100.00
3590;BME280;1809;48.470;9.226;2023-01-26T00:54:27;148689.28;;;0.70;100.00
3590;BME280;1809;48.470;9.226;2023-01-26T00:56:53;148666.88;;;0.61;100.00
3590;BME280;1809;48.470;9.226;2023-01-26T00:59:19;149026.16;;;0.68;100.00
3590;BME280;1809;48.470;9.226;2023-01-26T01:01:45;149006.19;;;0.60;100.00
3590;BME280;1809;48.470;9.226;2023-01-26T01:04:10;149328.03;;;0.52;100.00
3590;BME280;1809;48.470;9.226;2023-01-26T01:06:36;149656.09;;;0.46;100.00
3590;BME280;1809;48.470;9.226;2023-01-26T01:09:01;150330.94;;;0.43;100.00
3590;BME280;1809;48.470;9.226;2023-01-26T01:11:27;151031.13;;;0.49;100.00
3590;BME280;1809;48.470;9.226;2023-01-26T01:13:52;151395.88;;;0.59;100.00
3590;BME280;1809;48.470;9.226;2023-01-26T01:16:17;151047.56;;;0.56;100.00
3590;BME280;1809;48.470;9.226;2023-01-26T01:18:43;151071.53;;;0.66;100.00
3590;BME280;1809;48.470;9.226;2023-01-26T01:21:14;150363.66;;;0.56;100.00
3590;BME280;1809;48.470;9.226;2023-01-26T01:23:40;150348.53;;;0.50;100.00
3590;BME280;1809;48.470;9.226;2023-01-26T01:26:06;151032.34;;;0.50;100.00
3590;BME280;1809;48.470;9.226;2023-01-26T01:28:33;151024.78;;;0.47;100.00
3590;BME280;1809;48.470;9.226;2023-01-26T01:30:59;151371.81;;;0.49;100.00
3590;BME280;1809;48.470;9.226;2023-01-26T01:33:24;151723.94;;;0.53;100.00
3590;BME280;1809;48.470;9.226;2023-01-26T01:36:00;151706.19;;;0.46;100.00
3590;BME280;1809;48.470;9.226;2023-01-26T01:38:27;152046.91;;;0.45;100.00
3590;BME280;1809;48.470;9.226;2023-01-26T01:40:53;152746.38;;;0.51;100.00
3590;BME280;1809;48.470;9.226;2023-01-26T01:43:19;152385.09;;;0.44;100.00
3590;BME280;1809;48.470;9.226;2023-01-26T01:45:46;152736.13;;;0.47;100.00
3590;BME280;1809;48.470;9.226;2023-01-26T01:50:45;153060.34;;;0.40;100.00
3590;BME280;1809;48.470;9.226;2023-01-26T01:53:17;153767.75;;;0.49;100.00
3590;BME280;1809;48.470;9.226;2023-01-26T01:55:50;153771.56;;;0.51;100.00
3590;BME280;1809;48.470;9.226;2023-01-26T01:58:16;153437.09;;;0.54;100.00
3590;BME280;1809;48.470;9.226;2023-01-26T02:00:42;153087.22;;;0.51;100.00
3590;BME280;1809;48.470;9.226;2023-01-26T02:03:08;152770.66;;;0.61;100.00
3590;BME280;1809;48.470;9.226;2023-01-26T02:06:00;152086.38;;;0.61;100.00
3590;BME280;1809;48.470;9.226;2023-01-26T02:08:48;151737.94;;;0.59;100.00
3590;BME280;1809;48.470;9.226;2023-01-26T02:11:36;151009.63;;;0.41;100.00
3590;BME280;1809;48.470;9.226;2023-01-26T02:14:07;151354.06;;;0.42;100.00
3590;BME280;1809;48.470;9.226;2023-01-26T02:16:34;151721.44;;;0.52;100.00
3590;BME280;1809;48.470;9.226;2023-01-26T02:18:59;151683.34;;;0.37;100.00
3590;BME280;1809;48.470;9.226;2023-01-26T02:21:25;152022.75;;;0.36;100.00
3590;BME280;1809;48.470;9.226;2023-01-26T02:26:30;152729.75;;;0.45;100.00
3590;BME280;1809;48.470;9.226;2023-01-26T02:28:56;152351.97;;;0.31;100.00
3590;BME280;1809;48.470;9.226;2023-01-26T02:31:23;153066.72;;;0.43;100.00
3590;BME280;1809;48.470;9.226;2023-01-26T02:33:49;152711.84;;;0.38;100.00
3590;BME280;1809;48.470;9.226;2023-01-26T02:36:29;152733.59;;;0.46;100.00
3590;BME280;1809;48.470;9.226;2023-01-26T02:41:48;151352.78;;;0.41;100.00
3590;BME280;1809;48.470;9.226;2023-01-26T02:44:33;150986.88;;;0.32;100.00
3590;BME280;1809;48.470;9.226;2023-01-26T02:46:58;151341.44;;;0.37;100.00
3590;BME280;1809;48.470;9.226;2023-01-26T02:49:24;150999.53;;;0.37;100.00
3590;BME280;1809;48.470;9.226;2023-01-26T02:52:08;151002.03;;;0.38;100.00
3590;BME280;1809;48.470;9.226;2023-01-26T02:54:33;149930.13;;;0.19;100.00
3590;BME280;1809;48.470;9.226;2023-01-26T02:57:17;149933.91;;;0.21;100.00
3590;BME280;1809;48.470;9.226;2023-01-26T02:59:43;149928.91;;;0.19;100.00
3590;BME280;1809;48.470;9.226;2023-01-26T03:02:08;149574.72;;;0.14;100.00
3590;BME280;1809;48.470;9.226;2023-01-26T03:04:34;149933.91;;;0.21;100.00
3590;BME280;1809;48.470;9.226;2023-01-26T03:06:59;150278.13;;;0.22;100.00
3590;BME280;1809;48.470;9.226;2023-01-26T03:09:25;150280.63;;;0.23;100.00
3590;BME280;1809;48.470;9.226;2023-01-26T03:11:50;150629.91;;;0.26;100.00
3590;BME280;1809;48.470;9.226;2023-01-26T03:14:16;150974.25;;;0.27;100.00
3590;BME280;1809;48.470;9.226;2023-01-26T03:16:42;151340.16;;;0.36;100.00
3590;BME280;1809;48.470;9.226;2023-01-26T03:19:10;151000.81;;;0.37;100.00
3590;BME280;1809;48.470;9.226;2023-01-26T03:21:55;150991.94;;;0.34;100.00
3590;BME280;1809;48.470;9.226;2023-01-26T03:24:39;151341.44;;;0.37;100.00
3590;BME280;1809;48.470;9.226;2023-01-26T03:27:22;151366.72;;;0.47;100.00
3590;BME280;1809;48.470;9.226;2023-01-26T03:29:51;151018.47;;;0.44;100.00
3590;BME280;1809;48.470;9.226;2023-01-26T03:32:16;150667.72;;;0.41;100.00
3590;BME280;1809;48.470;9.226;2023-01-26T03:34:41;151019.72;;;0.45;100.00
3590;BME280;1809;48.470;9.226;2023-01-26T03:37:07;150672.81;;;0.43;100.00
3590;BME280;1809;48.470;9.226;2023-01-26T03:39:32;150685.41;;;0.48;100.00
3590;BME280;1809;48.470;9.226;2023-01-26T03:42:17;150684.13;;;0.47;100.00
3590;BME280;1809;48.470;9.226;2023-01-26T03:45:00;150695.50;;;0.52;100.00
3590;BME280;1809;48.470;9.226;2023-01-26T03:47:44;150020.50;;;0.56;100.00
3590;BME280;1809;48.470;9.226;2023-01-26T03:50:28;148604.72;;;0.36;100.00
3590;BME280;1809;48.470;9.226;2023-01-26T03:53:21;147894.31;;;0.25;100.00
3590;BME280;1809;48.470;9.226;2023-01-26T03:56:06;147894.31;;;0.25;100.00
3590;BME280;1809;48.470;9.226;2023-01-26T03:58:43;147545.44;;;0.22;100.00
3590;BME280;1809;48.470;9.226;2023-01-26T04:01:09;147884.41;;;0.21;100.00
3590;BME280;1809;48.470;9.226;2023-01-26T04:03:35;147899.25;;;0.27;100.00
3590;BME280;1809;48.470;9.226;2023-01-26T04:06:19;147577.47;;;0.35;100.00
3590;BME280;1809;48.470;9.226;2023-01-26T04:09:03;146565.31;;;0.40;100.00
3590;BME280;1809;48.470;9.226;2023-01-26T04:11:29;145506.97;;;0.26;100.00
3590;BME280;1809;48.470;9.226;2023-01-26T04:13:54;144807.53;;;0.19;100.00
3590;BME280;1809;48.470;9.226;2023-01-26T04:16:38;144812.38;;;0.21;100.00
3590;BME280;1809;48.470;9.226;2023-01-26T04:19:22;144097.50;;;0.07;100.00
3590;BME280;1809;48.470;9.226;2023-01-26T04:22:06;144439.78;;;0.08;100.00
3590;BME280;1809;48.470;9.226;2023-01-26T04:24:31;144801.44;;;0.16;100.00
3590;BME280;1809;48.470;9.226;2023-01-26T04:26:56;144131.28;;;0.21;100.00
3590;BME280;1809;48.470;9.226;2023-01-26T04:29:22;143090.06;;;0.14;100.00
3590;BME280;1809;48.470;9.226;2023-01-26T04:31:47;142749.09;;;0.14;100.00
3590;BME280;1809;48.470;9.226;2023-01-26T04:34:14;142408.16;;;0.14;100.00
3590;BME280;1809;48.470;9.226;2023-01-26T04:36:40;141733.47;;;0.17;100.00
3590;BME280;1809;48.470;9.226;2023-01-26T04:39:06;141041.22;;;0.12;100.00
3590;BME280;1809;48.470;9.226;2023-01-26T04:41:32;140699.28;;;0.12;100.00
3590;BME280;1809;48.470;9.226;2023-01-26T04:43:58;141404.47;;;0.22;100.00
3590;BME280;1809;48.470;9.226;2023-01-26T04:46:24;141081.25;;;0.29;100.00
3590;BME280;1809;48.470;9.226;2023-01-26T04:48:49;140047.09;;;0.24;100.00
3590;BME280;1809;48.470;9.226;2023-01-26T04:51:17;139360.97;;;0.22;100.00
3590;BME280;1809;48.470;9.226;2023-01-26T04:53:44;139356.31;;;0.20;100.00
3590;BME280;1809;48.470;9.226;2023-01-26T04:56:30;139366.81;;;0.25;100.00
3590;BME280;1809;48.470;9.226;2023-01-26T04:58:58;139027.25;;;0.25;100.00
3590;BME280;1809;48.470;9.226;2023-01-26T05:01:23;139742.53;;;0.40;100.00
3590;BME280;1809;48.470;9.226;2023-01-26T05:03:49;138690.13;;;0.27;100.00
3590;BME280;1809;48.470;9.226;2023-01-26T05:06:14;139035.41;;;0.29;100.00
3590;BME280;1809;48.470;9.226;2023-01-26T05:08:40;139369.13;;;0.26;100.00
3590;BME280;1809;48.470;9.226;2023-01-26T05:11:06;140064.59;;;0.32;100.00
3590;BME280;1809;48.470;9.226;2023-01-26T05:13:32;140057.59;;;0.29;100.00
3590;BME280;1809;48.470;9.226;2023-01-26T05:16:00;140394.88;;;0.27;100.00
3590;BME280;1809;48.470;9.226;2023-01-26T05:18:25;140382.00;;;0.22;100.00
3590;BME280;1809;48.470;9.226;2023-01-26T05:20:50;140748.63;;;0.33;100.00
3590;BME280;1809;48.470;9.226;2023-01-26T05:23:16;140411.28;;;0.34;100.00
3590;BME280;1809;48.470;9.226;2023-01-26T05:25:41;140410.16;;;0.34;100.00
3590;BME280;1809;48.470;9.226;2023-01-26T05:28:06;140070.44;;;0.34;100.00
3590;BME280;1809;48.470;9.226;2023-01-26T05:30:32;139715.66;;;0.28;100.00
3590;BME280;1809;48.470;9.226;2023-01-26T05:33:03;140048.25;;;0.25;100.00
3590;BME280;1809;48.470;9.226;2023-01-26T05:35:29;140393.72;;;0.27;100.00
3590;BME280;1809;48.470;9.226;2023-01-26T05:37:54;140732.16;;;0.26;100.00
3590;BME280;1809;48.470;9.226;2023-01-26T05:40:20;141073.00;;;0.26;100.00
3590;BME280;1809;48.470;9.226;2023-01-26T05:42:46;141766.66;;;0.31;100.00
3590;BME280;1809;48.470;9.226;2023-01-26T05:45:11;141761.91;;;0.29;100.00
3590;BME280;1809;48.470;9.226;2023-01-26T05:47:36;142120.69;;;0.36;100.00
3590;BME280;1809;48.470;9.226;2023-01-26T05:50:02;141770.19;;;0.32;100.00
3590;BME280;1809;48.470;9.226;2023-01-26T05:52:28;142115.91;;;0.34;100.00
3590;BME280;1809;48.470;9.226;2023-01-26T05:54:53;142446.25;;;0.30;100.00
3590;BME280;1809;48.470;9.226;2023-01-26T05:57:18;143133.13;;;0.32;100.00
3590;BME280;1809;48.470;9.226;2023-01-26T05:59:46;144149.31;;;0.29;100.00
3590;BME280;1809;48.470;9.226;2023-01-26T06:02:12;145511.88;;;0.28;100.00
3590;BME280;1809;48.470;9.226;2023-01-26T06:04:37;146204.28;;;0.32;100.00
3590;BME280;1809;48.470;9.226;2023-01-26T06:07:03;146524.84;;;0.23;100.00
3590;BME280;1809;48.470;9.226;2023-01-26T06:09:28;147201.50;;;0.21;100.00
3590;BME280;1809;48.470;9.226;2023-01-26T06:11:55;148239.53;;;0.26;100.00
3590;BME280;1809;48.470;9.226;2023-01-26T06:14:20;148240.78;;;0.27;100.00
3590;BME280;1809;48.470;9.226;2023-01-26T06:16:46;148232.09;;;0.23;100.00
3590;BME280;1809;48.470;9.226;2023-01-26T06:19:11;148577.41;;;0.25;100.00
3590;BME280;1809;48.470;9.226;2023-01-26T06:21:37;149283.09;;;0.34;100.00
3590;BME280;1809;48.470;9.226;2023-01-26T06:24:02;149273.09;;;0.30;100.00
3590;BME280;1809;48.470;9.226;2023-01-26T06:26:28;149607.25;;;0.27;100.00
3590;BME280;1809;48.470;9.226;2023-01-26T06:28:53;149956.50;;;0.30;100.00
3590;BME280;1809;48.470;9.226;2023-01-26T06:31:19;149951.50;;;0.28;100.00
3590;BME280;1809;48.470;9.226;2023-01-26T06:33:45;150293.22;;;0.28;100.00
3590;BME280;1809;48.470;9.226;2023-01-26T06:36:13;150618.59;;;0.21;100.00
3590;BME280;1809;48.470;9.226;2023-01-26T06:38:43;150611.03;;;0.18;100.00
3590;BME280;1809;48.470;9.226;2023-01-26T06:41:09;150964.13;;;0.23;100.00
3590;BME280;1809;48.470;9.226;2023-01-26T06:43:35;151297.06;;;0.19;100.00
3590;BME280;1809;48.470;9.226;2023-01-26T06:46:01;151646.50;;;0.22;100.00
3590;BME280;1809;48.470;9.226;2023-01-26T06:48:29;151971.81;;;0.16;100.00
3590;BME280;1809;48.470;9.226;2023-01-26T06:50:56;153015.47;;;0.23;100.00
3590;BME280;1809;48.470;9.226;2023-01-26T06:53:32;153000.09;;;0.17;100.00
3590;BME280;1809;48.470;9.226;2023-01-26T06:55:58;153334.34;;;0.14;100.00
3590;BME280;1809;48.470;9.226;2023-01-26T06:58:23;153326.66;;;0.11;100.00
3590;BME280;1809;48.470;9.226;2023-01-26T07:00:49;153681.47;;;0.16;100.00
3590;BME280;1809;48.470;9.226;2023-01-26T07:03:14;154017.06;;;0.13;100.00
3590;BME280;1809;48.470;9.226;2023-01-26T07:05:39;154372.06;;;0.18;100.00
3590;BME280;1809;48.470;9.226;2023-01-26T07:08:05;154703.78;;;0.14;100.00
3590;BME280;1809;48.470;9.226;2023-01-26T07:10:33;154712.84;;;0.18;100.00
3590;BME280;1809;48.470;9.226;2023-01-26T07:12:58;154731.06;;;0.24;100.00
3590;BME280;1809;48.470;9.226;2023-01-26T07:15:23;154698.63;;;0.12;100.00
3590;BME280;1809;48.470;9.226;2023-01-26T07:17:49;154708.94;;;0.16;100.00
3590;BME280;1809;48.470;9.226;2023-01-26T07:20:14;154699.88;;;0.13;100.00
3590;BME280;1809;48.470;9.226;2023-01-26T07:22:40;154710.25;;;0.17;100.00
3590;BME280;1809;48.470;9.226;2023-01-26T07:25:05;154686.94;;;0.08;100.00
3590;BME280;1809;48.470;9.226;2023-01-26T07:27:31;154698.69;;;0.11;100.00
3590;BME280;1809;48.470;9.226;2023-01-26T07:29:56;154720.69;;;0.20;100.00
3590;BME280;1809;48.470;9.226;2023-01-26T07:32:21;154723.31;;;0.21;100.00
3590;BME280;1809;48.470;9.226;2023-01-26T07:34:47;154718.13;;;0.19;100.00
3590;BME280;1809;48.470;9.226;2023-01-26T07:37:13;154729.78;;;0.23;100.00
3590;BME280;1809;48.470;9.226;2023-01-26T07:39:38;154723.31;;;0.21;100.00
3590;BME280;1809;48.470;9.226;2023-01-26T07:42:03;154738.84;;;0.27;100.00
3590;BME280;1809;48.470;9.226;2023-01-26T07:44:29;154750.47;;;0.31;100.00
3590;BME280;1809;48.470;9.226;2023-01-26T07:46:54;154741.47;;;0.28;100.00
3590;BME280;1809;48.470;9.226;2023-01-26T07:49:20;154732.38;;;0.24;100.00
3590;BME280;1809;48.470;9.226;2023-01-26T07:51:45;154744.00;;;0.29;100.00
3590;BME280;1809;48.470;9.226;2023-01-26T07:54:10;154749.22;;;0.31;100.00
3590;BME280;1809;48.470;9.226;2023-01-26T07:56:37;154736.25;;;0.26;100.00
3590;BME280;1809;48.470;9.226;2023-01-26T07:59:03;154733.69;;;0.25;100.00
3590;BME280;1809;48.470;9.226;2023-01-26T08:01:28;154751.78;;;0.32;100.00
3590;BME280;1809;48.470;9.226;2023-01-26T08:03:54;154750.47;;;0.31;100.00
3590;BME280;1809;48.470;9.226;2023-01-26T08:06:20;154801.03;;;0.51;100.00
3590;BME280;1809;48.470;9.226;2023-01-26T08:08:46;154803.66;;;0.52;100.00
3590;BME280;1809;48.470;9.226;2023-01-26T08:11:16;154786.78;;;0.45;100.00
3590;BME280;1809;48.470;9.226;2023-01-26T08:13:43;154775.13;;;0.41;100.00
3590;BME280;1809;48.470;9.226;2023-01-26T08:16:09;154785.50;;;0.45;100.00
3590;BME280;1809;48.470;9.226;2023-01-26T08:18:41;154777.72;;;0.42;100.00
3590;BME280;1809;48.470;9.226;2023-01-26T08:21:07;154780.34;;;0.43;100.00
3590;BME280;1809;48.470;9.226;2023-01-26T08:23:33;154785.50;;;0.45;100.00
3590;BME280;1809;48.470;9.226;2023-01-26T08:26:06;154824.38;;;0.60;100.00
3590;BME280;1809;48.470;9.226;2023-01-26T08:28:33;154825.69;;;0.61;100.00
3590;BME280;1809;48.470;9.226;2023-01-26T08:31:06;154836.06;;;0.65;100.00
3590;BME280;1809;48.470;9.226;2023-01-26T08:33:33;154833.47;;;0.64;100.00
3590;BME280;1809;48.470;9.226;2023-01-26T08:36:06;154834.75;;;0.64;100.00
3590;BME280;1809;48.470;9.226;2023-01-26T08:38:32;154837.38;;;0.65;100.00
3590;BME280;1809;48.470;9.226;2023-01-26T08:40:59;154814.03;;;0.56;100.00
3590;BME280;1809;48.470;9.226;2023-01-26T08:43:25;154829.47;;;0.63;100.00
3590;BME280;1809;48.470;9.226;2023-01-26T08:45:50;154811.38;;;0.56;100.00
3590;BME280;1809;48.470;9.226;2023-01-26T08:48:16;154867.16;;;0.77;100.00
3590;BME280;1809;48.470;9.226;2023-01-26T08:50:42;154855.41;;;0.73;100.00
3590;BME280;1809;48.470;9.226;2023-01-26T08:53:07;154487.09;;;0.63;100.00
3590;BME280;1809;48.470;9.226;2023-01-26T08:55:33;154476.78;;;0.59;100.00
3590;BME280;1809;48.470;9.226;2023-01-26T08:57:59;154808.75;;;0.55;100.00
3590;BME280;1809;48.470;9.226;2023-01-26T09:00:25;154829.59;;;0.62;100.00
3590;BME280;1809;48.470;9.226;2023-01-26T09:02:57;154788.09;;;0.46;100.00
3590;BME280;1809;48.470;9.226;2023-01-26T09:05:22;154788.09;;;0.46;100.00
3590;BME280;1809;48.470;9.226;2023-01-26T09:07:47;154811.44;;;0.55;100.00
3590;BME280;1809;48.470;9.226;2023-01-26T09:10:13;154795.88;;;0.49;100.00
3590;BME280;1809;48.470;9.226;2023-01-26T09:12:39;154794.56;;;0.48;100.00
3590;BME280;1809;48.470;9.226;2023-01-26T09:15:05;154789.41;;;0.46;100.00
3590;BME280;1809;48.470;9.226;2023-01-26T09:17:30;154790.66;;;0.47;100.00
3590;BME280;1809;48.470;9.226;2023-01-26T09:19:56;154780.34;;;0.43;100.00
3590;BME280;1809;48.470;9.226;2023-01-26T09:22:21;154772.56;;;0.40;100.00
3590;BME280;1809;48.470;9.226;2023-01-26T09:24:47;154784.19;;;0.44;100.00
3590;BME280;1809;48.470;9.226;2023-01-26T09:27:12;154785.50;;;0.45;100.00
3590;BME280;1809;48.470;9.226;2023-01-26T09:29:37;154780.34;;;0.43;100.00
3590;BME280;1809;48.470;9.226;2023-01-26T09:32:03;154780.34;;;0.43;100.00
3590;BME280;1809;48.470;9.226;2023-01-26T09:34:28;154789.41;;;0.46;100.00
3590;BME280;1809;48.470;9.226;2023-01-26T09:36:54;154798.44;;;0.50;100.00
3590;BME280;1809;48.470;9.226;2023-01-26T09:39:19;154785.50;;;0.45;100.00
3590;BME280;1809;48.470;9.226;2023-01-26T09:50:18;154746.63;;;0.30;100.00
3590;BME280;1809;48.470;9.226;2023-01-26T09:52:53;154736.25;;;0.26;100.00
3590;BME280;1809;48.470;9.226;2023-01-26T09:55:21;154751.78;;;0.32;100.00
3590;BME280;1809;48.470;9.226;2023-01-26T09:57:56;154724.59;;;0.21;100.00
3590;BME280;1809;48.470;9.226;2023-01-26T10:00:45;154723.31;;;0.21;100.00
3590;BME280;1809;48.470;9.226;2023-01-26T10:03:46;154741.47;;;0.28;100.00
3590;BME280;1809;48.470;9.226;2023-01-26T10:06:32;154772.56;;;0.40;100.00
3590;BME280;1809;48.470;9.226;2023-01-26T10:09:04;154762.16;;;0.36;100.00
3590;BME280;1809;48.470;9.226;2023-01-26T10:11:37;154788.09;;;0.46;100.00
3590;BME280;1809;48.470;9.226;2023-01-26T10:14:24;154775.13;;;0.41;100.00
3590;BME280;1809;48.470;9.226;2023-01-26T10:16:56;154782.88;;;0.44;100.00
3590;BME280;1809;48.470;9.226;2023-01-26T10:19:35;154764.78;;;0.37;100.00
3590;BME280;1809;48.470;9.226;2023-01-26T10:22:30;154878.81;;;0.81;100.00
3590;BME280;1809;48.470;9.226;2023-01-26T10:24:59;154894.38;;;0.87;100.00
3590;BME280;1809;48.470;9.226;2023-01-26T10:27:27;154917.75;;;0.96;100.00
3590;BME280;1809;48.470;9.226;2023-01-26T10:29:52;154920.31;;;0.97;100.00
3590;BME280;1809;48.470;9.226;2023-01-26T10:32:18;154941.09;;;1.05;100.00
3590;BME280;1809;48.470;9.226;2023-01-26T10:34:48;154926.72;;;1.01;100.00
3590;BME280;1809;48.470;9.226;2023-01-26T10:40:03;150105.84;;;0.90;100.00
3590;BME280;1809;48.470;9.226;2023-01-26T10:42:31;148029.19;;;0.80;100.00
3590;BME280;1809;48.470;9.226;2023-01-26T10:44:58;147361.59;;;0.86;100.00
3590;BME280;1809;48.470;9.226;2023-01-26T10:47:26;145965.38;;;0.74;100.00
3590;BME280;1809;48.470;9.226;2023-01-26T10:49:52;145648.09;;;0.84;100.00
3590;BME280;1809;48.470;9.226;2023-01-26T10:52:37;144962.53;;;0.83;100.00
3590;BME280;1809;48.470;9.226;2023-01-26T10:55:11;144277.06;;;0.82;100.00
3590;BME280;1809;48.470;9.226;2023-01-26T10:57:38;143238.41;;;0.76;100.00
3590;BME280;1809;48.470;9.226;2023-01-26T11:00:08;142554.56;;;0.76;100.00
3590;BME280;1809;48.470;9.226;2023-01-26T11:02:52;142196.66;;;0.69;100.00
3590;BME280;1809;48.470;9.226;2023-01-26T11:05:22;142566.50;;;0.81;100.00
3590;BME280;1809;48.470;9.226;2023-01-26T11:07:51;142212.13;;;0.75;100.00
3590;BME280;1809;48.470;9.226;2023-01-26T11:13:11;141163.78;;;0.65;100.00
3590;BME280;1809;48.470;9.226;2023-01-26T11:15:39;141496.63;;;0.61;100.00
3590;BME280;1809;48.470;9.226;2023-01-26T11:18:30;140781.53;;;0.47;100.00
3590;BME280;1809;48.470;9.226;2023-01-26T11:23:30;140406.59;;;0.32;100.00
3590;BME280;1809;48.470;9.226;2023-01-26T11:31:53;141117.81;;;0.45;100.00
3590;BME280;1809;48.470;9.226;2023-01-26T11:34:34;140769.78;;;0.42;100.00
3590;BME280;1809;48.470;9.226;2023-01-26T11:48:51;139388.88;;;0.34;100.00
3590;BME280;1809;48.470;9.226;2023-01-26T11:51:27;139026.13;;;0.25;100.00
3590;BME280;1809;48.470;9.226;2023-01-26T11:57:09;139392.41;;;0.36;100.00
3590;BME280;1809;48.470;9.226;2023-01-26T11:59:57;138663.50;;;0.15;100.00
3590;BME280;1809;48.470;9.226;2023-01-26T12:02:35;139699.34;;;0.21;100.00
3590;BME280;1809;48.470;9.226;2023-01-26T12:05:10;140404.25;;;0.31;100.00
3590;BME280;1809;48.470;9.226;2023-01-26T12:07:57;139373.81;;;0.28;100.00
3590;BME280;1809;48.470;9.226;2023-01-26T12:11:02;139719.19;;;0.30;100.00
3590;BME280;1809;48.470;9.226;2023-01-26T12:13:49;139031.94;;;0.27;100.00
3590;BME280;1809;48.470;9.226;2023-01-26T12:16:33;138699.38;;;0.31;100.00
3590;BME280;1809;48.470;9.226;2023-01-26T12:19:07;139047.03;;;0.34;100.00
3590;BME280;1809;48.470;9.226;2023-01-26T12:21:36;137640.75;;;0.15;100.00
3590;BME280;1809;48.470;9.226;2023-01-26T12:24:04;138692.44;;;0.28;100.00
3590;BME280;1809;48.470;9.226;2023-01-26T12:26:32;138335.63;;;0.21;100.00
3590;BME280;1809;48.470;9.226;2023-01-26T12:32:00;137967.44;;;0.09;100.00
3590;BME280;1809;48.470;9.226;2023-01-26T12:34:31;138664.59;;;0.16;100.00
3590;BME280;1809;48.470;9.226;2023-01-26T12:39:43;139371.44;;;0.27;100.00
3590;BME280;1809;48.470;9.226;2023-01-26T12:44:54;138680.84;;;0.23;100.00
3590;BME280;1809;48.470;9.226;2023-01-26T12:47:31;139035.41;;;0.29;100.00
3590;BME280;1809;48.470;9.226;2023-01-26T12:53:08;138346.00;;;0.25;100.00
3590;BME280;1809;48.470;9.226;2023-01-26T12:55:45;138669.28;;;0.18;100.00
3590;BME280;1809;48.470;9.226;2023-01-26T12:58:18;138644.94;;;0.07;100.00
3590;BME280;1809;48.470;9.226;2023-01-26T13:00:59;140015.50;;;0.11;100.00
3590;BME280;1809;48.470;9.226;2023-01-26T13:03:31;141380.81;;;0.12;100.00
3590;BME280;1809;48.470;9.226;2023-01-26T13:06:16;142406.97;;;0.13;100.00
3590;BME280;1809;48.470;9.226;2023-01-26T13:09:18;143800.94;;;0.26;100.00
3590;BME280;1809;48.470;9.226;2023-01-26T13:11:53;144166.19;;;0.36;100.00
3590;BME280;1809;48.470;9.226;2023-01-26T13:14:35;143486.25;;;0.37;100.00
3590;BME280;1809;48.470;9.226;2023-01-26T13:24:49;140685.16;;;0.06;100.00
3590;BME280;1809;48.470;9.226;2023-01-26T13:33:08;140652.25;;;-0.09;100.00
3590;BME280;1809;48.470;9.226;2023-01-26T13:35:35;141309.94;;;-0.19;100.00
3590;BME280;1809;48.470;9.226;2023-01-26T13:40:32;142670.38;;;-0.20;100.00
3590;BME280;1809;48.470;9.226;2023-01-26T13:43:19;143347.16;;;-0.22;100.00
3590;BME280;1809;48.470;9.226;2023-01-26T13:45:56;144016.81;;;-0.27;100.00
3590;BME280;1809;48.470;9.226;2023-01-26T13:51:05;143643.53;;;-0.40;100.00
3590;BME280;1809;48.470;9.226;2023-01-26T13:53:46;144340.78;;;-0.34;100.00
3590;BME280;1809;48.470;9.226;2023-01-26T13:56:31;144709.50;;;-0.22;100.00
3590;BME280;1809;48.470;9.226;2023-01-26T13:59:17;144028.84;;;-0.22;100.00
3590;BME280;1809;48.470;9.226;2023-01-26T14:01:48;143685.59;;;-0.23;100.00
3590;BME280;1809;48.470;9.226;2023-01-26T14:04:25;143687.97;;;-0.22;100.00
3590;BME280;1809;48.470;9.226;2023-01-26T14:09:34;143332.75;;;-0.28;100.00
3590;BME280;1809;48.470;9.226;2023-01-26T14:12:03;143330.41;;;-0.29;100.00
3590;BME280;1809;48.470;9.226;2023-01-26T14:14:32;143677.19;;;-0.26;100.00
3590;BME280;1809;48.470;9.226;2023-01-26T14:16:59;144006.00;;;-0.31;100.00
3590;BME280;1809;48.470;9.226;2023-01-26T14:19:27;144690.09;;;-0.30;100.00
3590;BME280;1809;48.470;9.226;2023-01-26T14:21:59;145728.78;;;-0.24;100.00
3590;BME280;1809;48.470;9.226;2023-01-26T14:26:50;146748.38;;;-0.25;100.00
3590;BME280;1809;48.470;9.226;2023-01-26T14:29:21;147095.66;;;-0.23;100.00
3590;BME280;1809;48.470;9.226;2023-01-26T14:31:48;146756.91;;;-0.22;100.00
3590;BME280;1809;48.470;9.226;2023-01-26T14:34:20;147105.47;;;-0.19;100.00
3590;BME280;1809;48.470;9.226;2023-01-26T14:36:46;146072.28;;;-0.23;100.00
3590;BME280;1809;48.470;9.226;2023-01-26T14:39:17;145722.69;;;-0.26;100.00
3590;BME280;1809;48.470;9.226;2023-01-26T14:41:43;146089.41;;;-0.16;100.00
3590;BME280;1809;48.470;9.226;2023-01-26T14:44:09;146057.63;;;-0.29;100.00